NRT weather

Narita International Airport
Tokyo, Chiba Prefecture, Japan

Public forecast

Using degrees Celsius for public forecast. Weather courtesy of forecast.io.

METAR (pilot weather report)

Retrieved 2017/05/28 23:30 UTC (23 minutes ago):

RJAA 282330Z 20006KT 160V240 9999 FEW020 BKN/// 22/15 Q1014 NOSIG

TAF (pilot weather forecast)

Retrieved 2017/05/28 18:00 UTC (6 hours ago):

TAF RJAA 281705Z 2818/3000 18006KT 9999 FEW020 TEMPO 2818/2821 4000 BR